Time,TemperatureF,DewpointF,PressureIn,WindDirection,WindDirectionDegrees,WindSpeedMPH,WindSpeedGustMPH,Humidity,HourlyPrecipIn,Conditions,Clouds,dailyrainin,SoftwareType,DateUTC
2013-09-16 00:02:00,56.9,51.0,30.05,West,260,2.0,10.0,81,0.00,,,0.00,weatherlink.com 1.10,2013-09-16 04:02:00,
2013-09-16 00:19:00,56.7,51.0,30.05,SSW,211,4.0,12.0,81,0.00,,,0.00,weatherlink.com 1.10,2013-09-16 04:19:00,
2013-09-16 00:35:00,56.6,51.0,30.05,WSW,256,3.0,12.0,81,0.00,,,0.00,weatherlink.com 1.10,2013-09-16 04:35:00,
2013-09-16 00:51:00,56.8,51.0,30.04,SSW,204,6.0,13.0,80,0.00,,,0.00,weatherlink.com 1.10,2013-09-16 04:51:00,
2013-09-16 01:07:00,57.1,51.0,30.03,South,190,7.0,13.0,79,0.00,,,0.00,weatherlink.com 1.10,2013-09-16 05:07:00,
2013-09-16 01:24:00,57.5,50.0,30.02,WSW,244,4.0,10.0,76,0.00,,,0.00,weatherlink.com 1.10,2013-09-16 05:24:00,
2013-09-16 01:40:00,57.1,50.0,30.02,SW,225,6.0,9.0,77,0.00,,,0.00,weatherlink.com 1.10,2013-09-16 05:40:00,
2013-09-16 01:56:00,56.8,50.0,30.00,WSW,237,5.0,5.0,77,0.00,,,0.00,weatherlink.com 1.10,2013-09-16 05:56:00,
2013-09-16 02:12:00,57.2,50.0,30.02,WSW,256,2.0,9.0,76,0.00,,,0.00,weatherlink.com 1.10,2013-09-16 06:12:00,
2013-09-16 02:29:00,57.3,50.0,30.03,WSW,239,7.0,14.0,76,0.00,,,0.00,weatherlink.com 1.10,2013-09-16 06:29:00,
2013-09-16 02:45:00,57.0,50.0,30.03,SSW,196,4.0,12.0,77,0.00,,,0.00,weatherlink.com 1.10,2013-09-16 06:45:00,
2013-09-16 03:01:00,56.4,50.0,30.02,WSW,248,6.0,8.0,79,0.00,,,0.00,weatherlink.com 1.10,2013-09-16 07:01:00,
2013-09-16 03:17:00,56.0,50.0,30.02,WSW,251,2.0,7.0,79,0.00,,,0.00,weatherlink.com 1.10,2013-09-16 07:17:00,
2013-09-16 03:34:00,56.1,49.0,30.03,SW,218,6.0,10.0,76,0.00,,,0.00,weatherlink.com 1.10,2013-09-16 07:34:00,
2013-09-16 03:50:00,56.2,49.0,30.02,WNW,291,1.0,12.0,77,0.00,,,0.00,weatherlink.com 1.10,2013-09-16 07:50:00,
2013-09-16 04:06:00,55.9,49.0,30.01,WSW,239,1.0,6.0,77,0.00,,,0.00,weatherlink.com 1.10,2013-09-16 08:06:00,
2013-09-16 04:22:00,55.9,48.0,29.99,SW,223,2.0,5.0,76,0.00,,,0.00,weatherlink.com 1.10,2013-09-16 08:22:00,
2013-09-16 04:39:00,55.9,48.0,30.01,West,264,2.0,7.0,76,0.00,,,0.00,weatherlink.com 1.10,2013-09-16 08:39:00,
2013-09-16 04:55:00,55.8,48.0,30.02,NW,313,1.0,5.0,76,0.00,,,0.00,weatherlink.com 1.10,2013-09-16 08:55:00,
2013-09-16 05:11:00,55.1,49.0,30.03,WSW,244,2.0,4.0,81,0.00,,,0.00,weatherlink.com 1.10,2013-09-16 09:11:00,
2013-09-16 05:27:00,53.5,50.0,30.04,SW,223,2.0,4.0,88,0.02,,,0.02,weatherlink.com 1.10,2013-09-16 09:27:00,
2013-09-16 05:44:00,52.7,50.0,30.05,West,268,1.0,9.0,91,0.03,,,0.03,weatherlink.com 1.10,2013-09-16 09:44:00,
2013-09-16 06:00:00,52.2,50.0,30.05,WSW,253,0.0,7.0,93,0.06,,,0.06,weatherlink.com 1.10,2013-09-16 10:00:00,
2013-09-16 06:16:00,52.3,50.0,30.04,SW,231,3.0,6.0,92,0.07,,,0.08,weatherlink.com 1.10,2013-09-16 10:16:00,
2013-09-16 06:32:00,52.5,50.0,30.04,WSW,248,2.0,8.0,91,0.06,,,0.09,weatherlink.com 1.10,2013-09-16 10:32:00,
2013-09-16 06:49:00,52.0,50.0,30.04,WSW,244,2.0,5.0,93,0.06,,,0.10,weatherlink.com 1.10,2013-09-16 10:49:00,
2013-09-16 07:05:00,51.8,50.0,30.04,West,280,1.0,6.0,94,0.03,,,0.10,weatherlink.com 1.10,2013-09-16 11:05:00,
2013-09-16 07:22:00,51.7,50.0,30.03,West,274,2.0,3.0,95,0.01,,,0.10,weatherlink.com 1.10,2013-09-16 11:22:00,
2013-09-16 07:38:00,51.8,50.0,30.03,West,274,0.0,4.0,95,0.01,,,0.10,weatherlink.com 1.10,2013-09-16 11:38:00,
2013-09-16 07:54:00,52.0,51.0,30.03,NW,315,4.0,5.0,95,0.00,,,0.10,weatherlink.com 1.10,2013-09-16 11:54:00,
2013-09-16 08:10:00,52.3,51.0,30.03,NW,306,1.0,3.0,95,0.00,,,0.10,weatherlink.com 1.10,2013-09-16 12:10:00,
2013-09-16 08:28:00,52.9,51.0,30.04,West,277,2.0,5.0,94,0.00,,,0.10,weatherlink.com 1.10,2013-09-16 12:28:00,
2013-09-16 08:44:00,53.4,52.0,30.04,WSW,256,2.0,5.0,94,0.00,,,0.10,weatherlink.com 1.10,2013-09-16 12:44:00,
2013-09-16 09:00:00,53.5,52.0,30.04,NW,315,2.0,7.0,93,0.00,,,0.10,weatherlink.com 1.10,2013-09-16 13:00:00,
2013-09-16 09:16:00,53.8,52.0,30.04,West,280,1.0,4.0,94,0.00,,,0.10,weatherlink.com 1.10,2013-09-16 13:16:00,
2013-09-16 09:32:00,54.4,53.0,30.04,WSW,244,2.0,5.0,94,0.00,,,0.10,weatherlink.com 1.10,2013-09-16 13:32:00,
2013-09-16 09:49:00,55.3,52.0,30.04,SSW,210,5.0,8.0,90,0.00,,,0.10,weatherlink.com 1.10,2013-09-16 13:49:00,
2013-09-16 10:05:00,56.0,52.0,30.04,SSW,208,12.0,16.0,87,0.00,,,0.10,weatherlink.com 1.10,2013-09-16 14:05:00,
2013-09-16 10:21:00,56.0,52.0,30.04,NNW,329,7.0,13.0,87,0.00,,,0.10,weatherlink.com 1.10,2013-09-16 14:21:00,
2013-09-16 10:37:00,56.1,52.0,30.04,NW,310,8.0,12.0,87,0.00,,,0.10,weatherlink.com 1.10,2013-09-16 14:37:00,
2013-09-16 10:54:00,56.8,52.0,30.04,NW,315,1.0,11.0,85,0.00,,,0.10,weatherlink.com 1.10,2013-09-16 14:54:00,
2013-09-16 11:10:00,56.0,52.0,30.05,West,268,4.0,8.0,87,0.00,,,0.10,weatherlink.com 1.10,2013-09-16 15:10:00,
2013-09-16 11:26:00,56.5,52.0,30.04,West,272,2.0,10.0,85,0.00,,,0.10,weatherlink.com 1.10,2013-09-16 15:26:00,
2013-09-16 11:42:00,55.4,52.0,30.05,NW,304,3.0,10.0,88,0.00,,,0.10,weatherlink.com 1.10,2013-09-16 15:42:00,
2013-09-16 11:59:00,55.9,52.0,30.05,WNW,296,3.0,11.0,88,0.00,,,0.10,weatherlink.com 1.10,2013-09-16 15:59:00,
2013-09-16 12:15:00,58.0,53.0,30.05,West,265,5.0,11.0,83,0.00,,,0.10,weatherlink.com 1.10,2013-09-16 16:15:00,
2013-09-16 12:31:00,57.1,52.0,30.05,WNW,292,4.0,12.0,83,0.00,,,0.10,weatherlink.com 1.10,2013-09-16 16:31:00,
2013-09-16 12:47:00,57.0,52.0,30.05,WSW,255,4.0,9.0,82,0.00,,,0.10,weatherlink.com 1.10,2013-09-16 16:47:00,
2013-09-16 13:04:00,56.4,51.0,30.05,WSW,253,5.0,11.0,83,0.00,,,0.10,weatherlink.com 1.10,2013-09-16 17:04:00,
2013-09-16 13:20:00,57.1,51.0,30.05,North,9,4.0,9.0,81,0.00,,,0.10,weatherlink.com 1.10,2013-09-16 17:20:00,
2013-09-16 13:36:00,57.4,51.0,30.05,WNW,302,5.0,12.0,79,0.00,,,0.10,weatherlink.com 1.10,2013-09-16 17:36:00,
2013-09-16 13:52:00,57.1,50.0,30.06,WNW,294,1.0,13.0,77,0.00,,,0.10,weatherlink.com 1.10,2013-09-16 17:52:00,
2013-09-16 14:09:00,56.8,50.0,30.06,ESE,108,3.0,15.0,78,0.00,,,0.10,weatherlink.com 1.10,2013-09-16 18:09:00,
2013-09-16 14:25:00,56.8,50.0,30.07,North,357,4.0,13.0,79,0.00,,,0.10,weatherlink.com 1.10,2013-09-16 18:25:00,
2013-09-16 14:41:00,55.9,49.0,30.07,NNE,28,7.0,11.0,79,0.00,,,0.10,weatherlink.com 1.10,2013-09-16 18:41:00,
2013-09-16 14:57:00,54.7,48.0,30.08,NNE,29,3.0,14.0,78,0.00,,,0.10,weatherlink.com 1.10,2013-09-16 18:57:00,
2013-09-16 15:14:00,53.8,47.0,30.08,NE,45,8.0,13.0,79,0.00,,,0.10,weatherlink.com 1.10,2013-09-16 19:14:00,
2013-09-16 15:30:00,53.2,46.0,30.09,NW,304,6.0,10.0,77,0.00,,,0.10,weatherlink.com 1.10,2013-09-16 19:30:00,
2013-09-16 15:46:00,54.8,47.0,30.09,NW,306,3.0,9.0,75,0.00,,,0.10,weatherlink.com 1.10,2013-09-16 19:46:00,
2013-09-16 16:03:00,54.5,46.0,30.09,SW,221,4.0,9.0,72,0.00,,,0.10,weatherlink.com 1.10,2013-09-16 20:03:00,
2013-09-16 16:19:00,53.6,45.0,30.10,NNE,28,10.0,10.0,73,0.00,,,0.10,weatherlink.com 1.10,2013-09-16 20:19:00,
2013-09-16 16:35:00,54.3,44.0,30.10,NW,305,5.0,11.0,69,0.00,,,0.10,weatherlink.com 1.10,2013-09-16 20:35:00,
2013-09-16 16:51:00,53.5,45.0,30.11,NNW,336,4.0,11.0,72,0.00,,,0.10,weatherlink.com 1.10,2013-09-16 20:51:00,
2013-09-16 17:07:00,53.7,44.0,30.12,NNE,18,4.0,10.0,69,0.00,,,0.10,weatherlink.com 1.10,2013-09-16 21:07:00,
2013-09-16 17:24:00,53.3,43.0,30.12,NW,320,2.0,9.0,68,0.00,,,0.10,weatherlink.com 1.10,2013-09-16 21:24:00,
2013-09-16 17:40:00,52.4,42.0,30.12,WNW,295,2.0,11.0,68,0.00,,,0.10,weatherlink.com 1.10,2013-09-16 21:40:00,
2013-09-16 17:56:00,52.2,42.0,30.14,NW,323,5.0,10.0,68,0.00,,,0.10,weatherlink.com 1.10,2013-09-16 21:56:00,
2013-09-16 18:12:00,52.1,41.0,30.14,NW,320,3.0,8.0,67,0.00,,,0.10,weatherlink.com 1.10,2013-09-16 22:12:00,
2013-09-16 18:29:00,49.4,41.0,30.14,NW,307,7.0,8.0,73,0.00,,,0.10,weatherlink.com 1.10,2013-09-16 22:29:00,
2013-09-16 18:45:00,48.3,41.0,30.16,NNW,331,3.0,9.0,75,0.00,,,0.10,weatherlink.com 1.10,2013-09-16 22:45:00,
2013-09-16 19:01:00,47.3,40.0,30.16,NW,306,4.0,10.0,75,0.00,,,0.10,weatherlink.com 1.10,2013-09-16 23:01:00,
2013-09-16 19:17:00,46.5,39.0,30.17,North,9,2.0,7.0,76,0.00,,,0.10,weatherlink.com 1.10,2013-09-16 23:17:00,
2013-09-16 19:34:00,45.6,38.0,30.18,West,281,2.0,7.0,76,0.00,,,0.10,weatherlink.com 1.10,2013-09-16 23:34:00,
2013-09-16 19:50:00,45.2,38.0,30.19,NNW,343,2.0,7.0,77,0.00,,,0.10,weatherlink.com 1.10,2013-09-16 23:50:00,
2013-09-16 20:07:00,44.7,38.0,30.20,WNW,298,6.0,9.0,77,0.00,,,0.10,weatherlink.com 1.10,2013-09-17 00:07:00,
2013-09-16 20:23:00,44.5,38.0,30.21,WNW,303,4.0,10.0,77,0.00,,,0.10,weatherlink.com 1.10,2013-09-17 00:23:00,
2013-09-16 20:39:00,44.1,37.0,30.21,NW,305,4.0,10.0,77,0.00,,,0.10,weatherlink.com 1.10,2013-09-17 00:39:00,
2013-09-16 20:55:00,43.7,37.0,30.22,NW,311,3.0,11.0,77,0.00,,,0.10,weatherlink.com 1.10,2013-09-17 00:55:00,
2013-09-16 21:11:00,43.2,37.0,30.22,NW,308,2.0,9.0,78,0.00,,,0.10,weatherlink.com 1.10,2013-09-17 01:11:00,
2013-09-16 21:28:00,42.9,37.0,30.23,NW,319,5.0,9.0,78,0.00,,,0.10,weatherlink.com 1.10,2013-09-17 01:28:00,
2013-09-16 21:44:00,42.5,36.0,30.23,NW,315,3.0,10.0,78,0.00,,,0.10,weatherlink.com 1.10,2013-09-17 01:44:00,
2013-09-16 22:00:00,42.0,36.0,30.24,North,351,4.0,10.0,79,0.00,,,0.10,weatherlink.com 1.10,2013-09-17 02:00:00,
2013-09-16 22:16:00,41.9,35.0,30.25,North,5,2.0,8.0,77,0.00,,,0.10,weatherlink.com 1.10,2013-09-17 02:16:00,
2013-09-16 22:33:00,41.6,36.0,30.25,NW,308,2.0,8.0,79,0.00,,,0.10,weatherlink.com 1.10,2013-09-17 02:33:00,
2013-09-16 22:49:00,41.0,35.0,30.26,North,359,1.0,6.0,80,0.00,,,0.10,weatherlink.com 1.10,2013-09-17 02:49:00,
2013-09-16 23:05:00,40.7,35.0,30.27,West,265,0.0,5.0,80,0.00,,,0.10,weatherlink.com 1.10,2013-09-17 03:05:00,
2013-09-16 23:21:00,40.4,35.0,30.28,NNW,343,1.0,6.0,81,0.00,,,0.10,weatherlink.com 1.10,2013-09-17 03:21:00,
2013-09-16 23:38:00,40.0,35.0,30.28,West,277,1.0,4.0,81,0.00,,,0.10,weatherlink.com 1.10,2013-09-17 03:38:00,
2013-09-16 23:54:00,40.1,35.0,30.29,NNW,343,3.0,4.0,81,0.00,,,0.10,weatherlink.com 1.10,2013-09-17 03:54:00,